sensor_id;sensor_type;location;lat;lon;timestamp;pressure;altitude;pressure_sealevel;temperature;humidity
72896;BME280;61036;53.224;6.554;2023-05-10T00:02:22;100696.72;;;16.93;100.00
72896;BME280;61036;53.224;6.554;2023-05-10T00:04:48;100696.84;;;16.83;100.00
72896;BME280;61036;53.224;6.554;2023-05-10T00:07:14;100701.59;;;17.07;100.00
72896;BME280;61036;53.224;6.554;2023-05-10T00:09:39;100689.00;;;17.41;100.00
72896;BME280;61036;53.224;6.554;2023-05-10T00:12:05;100681.66;;;17.75;100.00
72896;BME280;61036;53.224;6.554;2023-05-10T00:14:31;100685.41;;;18.41;100.00
72896;BME280;61036;53.224;6.554;2023-05-10T00:16:56;100684.97;;;17.87;100.00
72896;BME280;61036;53.224;6.554;2023-05-10T00:19:22;100677.88;;;18.35;100.00
72896;BME280;61036;53.224;6.554;2023-05-10T00:21:47;100679.25;;;18.39;100.00
72896;BME280;61036;53.224;6.554;2023-05-10T00:24:13;100676.16;;;18.91;100.00
72896;BME280;61036;53.224;6.554;2023-05-10T00:26:38;100673.09;;;18.62;100.00
72896;BME280;61036;53.224;6.554;2023-05-10T00:29:04;100676.50;;;18.64;100.00
72896;BME280;61036;53.224;6.554;2023-05-10T00:31:29;100671.75;;;18.82;100.00
72896;BME280;61036;53.224;6.554;2023-05-10T00:33:56;100658.75;;;18.43;100.00
72896;BME280;61036;53.224;6.554;2023-05-10T00:36:22;100667.41;;;17.98;100.00
72896;BME280;61036;53.224;6.554;2023-05-10T00:38:48;100670.19;;;18.55;100.00
72896;BME280;61036;53.224;6.554;2023-05-10T00:41:13;100665.91;;;18.03;100.00
72896;BME280;61036;53.224;6.554;2023-05-10T00:43:40;100658.75;;;18.19;100.00
72896;BME280;61036;53.224;6.554;2023-05-10T00:46:05;100663.53;;;18.90;100.00
72896;BME280;61036;53.224;6.554;2023-05-10T00:48:31;100664.91;;;18.45;100.00
72896;BME280;61036;53.224;6.554;2023-05-10T00:50:57;100654.84;;;17.63;100.00
72896;BME280;61036;53.224;6.554;2023-05-10T00:53:23;100652.78;;;18.23;100.00
72896;BME280;61036;53.224;6.554;2023-05-10T00:55:49;100653.63;;;18.65;100.00
72896;BME280;61036;53.224;6.554;2023-05-10T00:58:16;100652.78;;;18.32;100.00
72896;BME280;61036;53.224;6.554;2023-05-10T01:00:42;100660.13;;;18.39;100.00
72896;BME280;61036;53.224;6.554;2023-05-10T01:03:10;100657.13;;;17.83;100.00
72896;BME280;61036;53.224;6.554;2023-05-10T01:05:37;100656.84;;;17.95;100.00
72896;BME280;61036;53.224;6.554;2023-05-10T01:08:02;100652.72;;;17.82;100.00
72896;BME280;61036;53.224;6.554;2023-05-10T01:10:29;100642.66;;;17.41;100.00
72896;BME280;61036;53.224;6.554;2023-05-10T01:12:55;100651.41;;;18.19;100.00
72896;BME280;61036;53.224;6.554;2023-05-10T01:15:21;100649.50;;;17.95;100.00
72896;BME280;61036;53.224;6.554;2023-05-10T01:17:47;100662.31;;;18.03;100.00
72896;BME280;61036;53.224;6.554;2023-05-10T01:20:14;100658.44;;;18.63;100.00
72896;BME280;61036;53.224;6.554;2023-05-10T01:23:15;100658.53;;;19.10;100.00
72896;BME280;61036;53.224;6.554;2023-05-10T01:29:01;100666.41;;;19.05;100.00
72896;BME280;61036;53.224;6.554;2023-05-10T01:34:35;100659.78;;;18.34;100.00
72896;BME280;61036;53.224;6.554;2023-05-10T01:37:06;100663.13;;;17.95;100.00
72896;BME280;61036;53.224;6.554;2023-05-10T01:39:43;100667.63;;;18.45;100.00
72896;BME280;61036;53.224;6.554;2023-05-10T01:42:11;100662.69;;;18.73;100.00
72896;BME280;61036;53.224;6.554;2023-05-10T01:44:58;100672.78;;;17.73;100.00
72896;BME280;61036;53.224;6.554;2023-05-10T01:47:32;100665.41;;;17.66;100.00
72896;BME280;61036;53.224;6.554;2023-05-10T01:50:03;100665.06;;;18.11;100.00
72896;BME280;61036;53.224;6.554;2023-05-10T01:52:42;100664.53;;;18.08;100.00
72896;BME280;61036;53.224;6.554;2023-05-10T01:55:11;100667.06;;;17.85;100.00
72896;BME280;61036;53.224;6.554;2023-05-10T01:57:39;100664.84;;;17.88;100.00
72896;BME280;61036;53.224;6.554;2023-05-10T02:00:07;100667.44;;;18.06;100.00
72896;BME280;61036;53.224;6.554;2023-05-10T02:02:52;100660.44;;;18.03;100.00
72896;BME280;61036;53.224;6.554;2023-05-10T02:05:19;100669.94;;;17.83;100.00
72896;BME280;61036;53.224;6.554;2023-05-10T02:07:46;100663.00;;;18.13;100.00
72896;BME280;61036;53.224;6.554;2023-05-10T02:10:13;100662.66;;;18.16;100.00
72896;BME280;61036;53.224;6.554;2023-05-10T02:12:42;100666.53;;;17.89;100.00
72896;BME280;61036;53.224;6.554;2023-05-10T02:15:09;100663.94;;;17.37;100.00
72896;BME280;61036;53.224;6.554;2023-05-10T02:17:37;100670.19;;;18.63;100.00
72896;BME280;61036;53.224;6.554;2023-05-10T02:20:06;100669.88;;;18.42;100.00
72896;BME280;61036;53.224;6.554;2023-05-10T02:22:35;100681.94;;;18.07;100.00
72896;BME280;61036;53.224;6.554;2023-05-10T02:25:01;100671.06;;;18.39;100.00
72896;BME280;61036;53.224;6.554;2023-05-10T02:27:29;100661.16;;;18.30;100.00
72896;BME280;61036;53.224;6.554;2023-05-10T02:29:56;100672.56;;;17.58;100.00
72896;BME280;61036;53.224;6.554;2023-05-10T02:32:25;100664.94;;;18.78;100.00
72896;BME280;61036;53.224;6.554;2023-05-10T02:34:52;100675.13;;;18.27;100.00
72896;BME280;61036;53.224;6.554;2023-05-10T02:37:20;100664.94;;;18.78;100.00
72896;BME280;61036;53.224;6.554;2023-05-10T02:39:47;100665.53;;;17.98;100.00
72896;BME280;61036;53.224;6.554;2023-05-10T02:42:36;100670.63;;;19.16;100.00
72896;BME280;61036;53.224;6.554;2023-05-10T02:45:07;100653.00;;;19.27;100.00
72896;BME280;61036;53.224;6.554;2023-05-10T02:47:34;100660.13;;;18.72;100.00
72896;BME280;61036;53.224;6.554;2023-05-10T02:50:00;100656.03;;;18.51;100.00
72896;BME280;61036;53.224;6.554;2023-05-10T02:52:29;100656.72;;;18.37;100.00
72896;BME280;61036;53.224;6.554;2023-05-10T02:54:58;100655.53;;;18.81;100.00
72896;BME280;61036;53.224;6.554;2023-05-10T02:57:32;100654.81;;;18.70;100.00
72896;BME280;61036;53.224;6.554;2023-05-10T02:59:58;100650.91;;;18.73;100.00
72896;BME280;61036;53.224;6.554;2023-05-10T03:02:26;100657.22;;;18.41;100.00
72896;BME280;61036;53.224;6.554;2023-05-10T03:04:51;100659.44;;;18.45;100.00
72896;BME280;61036;53.224;6.554;2023-05-10T03:07:17;100655.00;;;18.12;100.00
72896;BME280;61036;53.224;6.554;2023-05-10T03:09:48;100657.88;;;18.92;100.00
72896;BME280;61036;53.224;6.554;2023-05-10T03:12:21;100656.69;;;18.70;100.00
72896;BME280;61036;53.224;6.554;2023-05-10T03:17:36;100659.28;;;18.88;100.00
72896;BME280;61036;53.224;6.554;2023-05-10T03:20:08;100653.59;;;18.98;100.00
72896;BME280;61036;53.224;6.554;2023-05-10T03:22:48;100654.50;;;18.82;100.00
72896;BME280;61036;53.224;6.554;2023-05-10T03:25:16;100653.41;;;17.93;100.00
72896;BME280;61036;53.224;6.554;2023-05-10T03:27:43;100653.97;;;18.62;100.00
72896;BME280;61036;53.224;6.554;2023-05-10T03:30:12;100666.06;;;18.10;100.00
72896;BME280;61036;53.224;6.554;2023-05-10T03:32:38;100663.03;;;18.21;100.00
72896;BME280;61036;53.224;6.554;2023-05-10T03:35:08;100661.06;;;19.20;100.00
72896;BME280;61036;53.224;6.554;2023-05-10T03:37:34;100664.41;;;18.42;100.00
72896;BME280;61036;53.224;6.554;2023-05-10T03:40:00;100672.25;;;18.37;100.00
72896;BME280;61036;53.224;6.554;2023-05-10T03:42:26;100669.00;;;18.33;100.00
72896;BME280;61036;53.224;6.554;2023-05-10T03:44:52;100667.47;;;18.71;100.00
72896;BME280;61036;53.224;6.554;2023-05-10T03:47:17;100667.81;;;18.60;100.00
72896;BME280;61036;53.224;6.554;2023-05-10T03:49:43;100667.97;;;18.34;100.00
72896;BME280;61036;53.224;6.554;2023-05-10T03:52:10;100669.84;;;18.66;100.00
72896;BME280;61036;53.224;6.554;2023-05-10T03:54:36;100663.53;;;18.66;100.00
72896;BME280;61036;53.224;6.554;2023-05-10T03:57:02;100665.78;;;18.79;100.00
72896;BME280;61036;53.224;6.554;2023-05-10T03:59:29;100672.06;;;18.71;100.00
72896;BME280;61036;53.224;6.554;2023-05-10T04:01:54;100668.47;;;18.38;100.00
72896;BME280;61036;53.224;6.554;2023-05-10T04:04:20;100670.53;;;18.60;100.00
72896;BME280;61036;53.224;6.554;2023-05-10T04:06:48;100673.28;;;18.68;100.00
72896;BME280;61036;53.224;6.554;2023-05-10T04:09:13;100675.31;;;18.42;100.00
72896;BME280;61036;53.224;6.554;2023-05-10T04:11:39;100671.03;;;18.72;100.00
72896;BME280;61036;53.224;6.554;2023-05-10T04:14:04;100677.53;;;18.46;100.00
72896;BME280;61036;53.224;6.554;2023-05-10T04:16:30;100670.88;;;18.33;100.00
72896;BME280;61036;53.224;6.554;2023-05-10T04:18:55;100672.75;;;18.32;100.00
72896;BME280;61036;53.224;6.554;2023-05-10T04:21:21;100676.50;;;18.56;100.00
72896;BME280;61036;53.224;6.554;2023-05-10T04:23:46;100678.09;;;18.75;100.00
72896;BME280;61036;53.224;6.554;2023-05-10T04:26:12;100688.28;;;18.72;100.00
72896;BME280;61036;53.224;6.554;2023-05-10T04:28:38;100676.84;;;18.28;100.00
72896;BME280;61036;53.224;6.554;2023-05-10T04:31:07;100677.31;;;18.07;100.00
72896;BME280;61036;53.224;6.554;2023-05-10T04:33:33;100680.59;;;18.19;100.00
72896;BME280;61036;53.224;6.554;2023-05-10T04:35:59;100682.28;;;18.20;100.00
72896;BME280;61036;53.224;6.554;2023-05-10T04:38:26;100683.75;;;17.81;100.00
72896;BME280;61036;53.224;6.554;2023-05-10T04:40:52;100688.56;;;18.04;100.00
72896;BME280;61036;53.224;6.554;2023-05-10T04:43:17;100687.00;;;17.85;100.00
72896;BME280;61036;53.224;6.554;2023-05-10T04:45:43;100689.31;;;18.63;100.00
72896;BME280;61036;53.224;6.554;2023-05-10T04:48:08;100682.13;;;18.46;100.00
72896;BME280;61036;53.224;6.554;2023-05-10T04:50:34;100685.25;;;18.84;100.00
72896;BME280;61036;53.224;6.554;2023-05-10T04:53:00;100694.91;;;18.29;100.00
72896;BME280;61036;53.224;6.554;2023-05-10T04:55:25;100696.66;;;18.38;100.00
72896;BME280;61036;53.224;6.554;2023-05-10T04:57:53;100696.16;;;18.59;100.00
72896;BME280;61036;53.224;6.554;2023-05-10T05:00:20;100697.34;;;18.48;100.00
72896;BME280;61036;53.224;6.554;2023-05-10T05:02:46;100708.34;;;17.98;100.00
72896;BME280;61036;53.224;6.554;2023-05-10T05:05:12;100707.94;;;18.76;100.00
72896;BME280;61036;53.224;6.554;2023-05-10T05:07:38;100710.31;;;19.04;100.00
72896;BME280;61036;53.224;6.554;2023-05-10T05:10:07;100714.03;;;18.37;100.00
72896;BME280;61036;53.224;6.554;2023-05-10T05:12:34;100709.56;;;18.12;100.00
72896;BME280;61036;53.224;6.554;2023-05-10T05:15:00;100710.63;;;18.27;100.00
72896;BME280;61036;53.224;6.554;2023-05-10T05:17:25;100717.09;;;18.26;100.00
72896;BME280;61036;53.224;6.554;2023-05-10T05:19:50;100715.41;;;18.49;100.00
72896;BME280;61036;53.224;6.554;2023-05-10T05:22:16;100716.63;;;18.55;100.00
72896;BME280;61036;53.224;6.554;2023-05-10T05:24:42;100719.19;;;18.48;100.00
72896;BME280;61036;53.224;6.554;2023-05-10T05:27:07;100714.25;;;18.68;100.00
72896;BME280;61036;53.224;6.554;2023-05-10T05:29:33;100721.16;;;18.05;100.00
72896;BME280;61036;53.224;6.554;2023-05-10T05:31:58;100725.81;;;18.38;100.00
72896;BME280;61036;53.224;6.554;2023-05-10T05:34:24;100719.88;;;18.67;100.00
72896;BME280;61036;53.224;6.554;2023-05-10T05:36:49;100719.66;;;18.27;100.00
72896;BME280;61036;53.224;6.554;2023-05-10T05:39:14;100726.69;;;18.55;100.00
72896;BME280;61036;53.224;6.554;2023-05-10T05:41:40;100731.19;;;17.63;100.00
72896;BME280;61036;53.224;6.554;2023-05-10T05:44:05;100732.44;;;17.76;100.00
72896;BME280;61036;53.224;6.554;2023-05-10T05:46:31;100733.19;;;18.54;100.00
72896;BME280;61036;53.224;6.554;2023-05-10T05:48:56;100739.00;;;18.50;100.00
72896;BME280;61036;53.224;6.554;2023-05-10T05:51:22;100739.00;;;19.00;100.00
72896;BME280;61036;53.224;6.554;2023-05-10T05:53:47;100747.16;;;18.42;100.00
72896;BME280;61036;53.224;6.554;2023-05-10T05:56:13;100745.13;;;18.44;100.00
72896;BME280;61036;53.224;6.554;2023-05-10T05:58:39;100754.50;;;18.50;100.00
72896;BME280;61036;53.224;6.554;2023-05-10T06:01:04;100746.91;;;18.03;100.00
72896;BME280;61036;53.224;6.554;2023-05-10T06:03:30;100755.75;;;18.05;100.00
72896;BME280;61036;53.224;6.554;2023-05-10T06:05:55;100752.13;;;18.39;100.00
72896;BME280;61036;53.224;6.554;2023-05-10T06:08:21;100761.50;;;18.52;100.00
72896;BME280;61036;53.224;6.554;2023-05-10T06:10:46;100768.44;;;18.14;100.00
72896;BME280;61036;53.224;6.554;2023-05-10T06:13:12;100767.00;;;18.02;100.00
72896;BME280;61036;53.224;6.554;2023-05-10T06:15:38;100761.16;;;17.89;100.00
72896;BME280;61036;53.224;6.554;2023-05-10T06:18:03;100764.97;;;18.04;100.00
72896;BME280;61036;53.224;6.554;2023-05-10T06:20:29;100776.41;;;18.08;100.00
72896;BME280;61036;53.224;6.554;2023-05-10T06:22:57;100774.66;;;17.30;100.00
72896;BME280;61036;53.224;6.554;2023-05-10T06:25:23;100781.13;;;17.89;100.00
72896;BME280;61036;53.224;6.554;2023-05-10T06:27:48;100787.22;;;17.83;100.00
72896;BME280;61036;53.224;6.554;2023-05-10T06:30:14;100786.91;;;17.08;100.00
72896;BME280;61036;53.224;6.554;2023-05-10T06:32:41;100792.31;;;17.78;100.00
72896;BME280;61036;53.224;6.554;2023-05-10T06:35:07;100790.38;;;17.70;100.00
72896;BME280;61036;53.224;6.554;2023-05-10T06:37:33;100797.47;;;17.81;100.00
72896;BME280;61036;53.224;6.554;2023-05-10T06:39:59;100798.50;;;17.88;100.00
72896;BME280;61036;53.224;6.554;2023-05-10T06:42:24;100806.84;;;17.08;100.00
72896;BME280;61036;53.224;6.554;2023-05-10T06:44:51;100804.72;;;16.76;100.00
72896;BME280;61036;53.224;6.554;2023-05-10T06:47:16;100816.47;;;17.21;100.00
72896;BME280;61036;53.224;6.554;2023-05-10T06:49:42;100823.25;;;17.17;100.00
72896;BME280;61036;53.224;6.554;2023-05-10T06:52:07;100821.97;;;16.85;100.00
72896;BME280;61036;53.224;6.554;2023-05-10T06:54:33;100820.22;;;17.98;100.00
72896;BME280;61036;53.224;6.554;2023-05-10T06:56:58;100816.91;;;17.34;100.00
72896;BME280;61036;53.224;6.554;2023-05-10T06:59:24;100821.06;;;17.20;100.00
72896;BME280;61036;53.224;6.554;2023-05-10T07:01:50;100826.00;;;17.43;100.00
72896;BME280;61036;53.224;6.554;2023-05-10T07:04:15;100826.00;;;16.99;100.00
72896;BME280;61036;53.224;6.554;2023-05-10T07:06:41;100832.94;;;17.37;100.00
72896;BME280;61036;53.224;6.554;2023-05-10T07:09:06;100832.31;;;17.69;100.00
72896;BME280;61036;53.224;6.554;2023-05-10T07:11:32;100827.97;;;17.58;100.00
72896;BME280;61036;53.224;6.554;2023-05-10T07:13:58;100830.22;;;17.37;100.00
72896;BME280;61036;53.224;6.554;2023-05-10T07:16:23;100838.09;;;17.40;100.00
72896;BME280;61036;53.224;6.554;2023-05-10T07:18:49;100839.22;;;17.55;100.00
72896;BME280;61036;53.224;6.554;2023-05-10T07:21:15;100839.16;;;17.47;100.00
72896;BME280;61036;53.224;6.554;2023-05-10T07:23:41;100837.38;;;16.94;100.00
72896;BME280;61036;53.224;6.554;2023-05-10T07:26:06;100843.41;;;17.24;100.00
72896;BME280;61036;53.224;6.554;2023-05-10T07:28:32;100839.13;;;17.91;100.00
72896;BME280;61036;53.224;6.554;2023-05-10T07:30:58;100842.16;;;18.81;100.00
72896;BME280;61036;53.224;6.554;2023-05-10T07:33:23;100840.75;;;18.69;100.00
72896;BME280;61036;53.224;6.554;2023-05-10T07:35:49;100841.81;;;18.76;100.00
72896;BME280;61036;53.224;6.554;2023-05-10T07:38:15;100855.13;;;18.20;100.00
72896;BME280;61036;53.224;6.554;2023-05-10T07:40:40;100855.91;;;18.13;100.00
72896;BME280;61036;53.224;6.554;2023-05-10T07:43:06;100841.22;;;18.48;100.00
72896;BME280;61036;53.224;6.554;2023-05-10T07:45:33;100852.09;;;18.99;100.00
72896;BME280;61036;53.224;6.554;2023-05-10T07:47:58;100850.06;;;18.42;100.00
72896;BME280;61036;53.224;6.554;2023-05-10T07:50:24;100855.16;;;18.37;100.00
72896;BME280;61036;53.224;6.554;2023-05-10T07:52:49;100857.56;;;18.40;100.00
72896;BME280;61036;53.224;6.554;2023-05-10T07:55:15;100865.53;;;18.25;100.00
72896;BME280;61036;53.224;6.554;2023-05-10T07:57:41;100871.84;;;18.76;100.00
72896;BME280;61036;53.224;6.554;2023-05-10T08:00:07;100878.75;;;17.77;100.00
72896;BME280;61036;53.224;6.554;2023-05-10T08:02:40;100879.69;;;18.20;100.00
72896;BME280;61036;53.224;6.554;2023-05-10T08:05:06;100876.16;;;18.36;100.00
72896;BME280;61036;53.224;6.554;2023-05-10T08:07:32;100888.03;;;18.19;100.00
72896;BME280;61036;53.224;6.554;2023-05-10T08:09:57;100885.97;;;17.87;100.00
72896;BME280;61036;53.224;6.554;2023-05-10T08:12:23;100886.09;;;18.45;100.00
72896;BME280;61036;53.224;6.554;2023-05-10T08:14:48;100893.34;;;18.28;100.00
72896;BME280;61036;53.224;6.554;2023-05-10T08:17:14;100897.50;;;17.54;100.00
72896;BME280;61036;53.224;6.554;2023-05-10T08:19:39;100897.16;;;18.78;100.00
72896;BME280;61036;53.224;6.554;2023-05-10T08:22:05;100904.97;;;18.31;100.00
72896;BME280;61036;53.224;6.554;2023-05-10T08:24:30;100907.78;;;17.87;100.00
72896;BME280;61036;53.224;6.554;2023-05-10T08:26:56;100908.91;;;17.76;100.00
72896;BME280;61036;53.224;6.554;2023-05-10T08:29:21;100906.06;;;18.12;100.00
72896;BME280;61036;53.224;6.554;2023-05-10T08:31:46;100910.63;;;18.03;100.00
72896;BME280;61036;53.224;6.554;2023-05-10T08:34:12;100915.19;;;18.28;100.00
72896;BME280;61036;53.224;6.554;2023-05-10T08:36:37;100913.00;;;17.54;100.00
72896;BME280;61036;53.224;6.554;2023-05-10T08:39:03;100921.66;;;17.93;100.00
72896;BME280;61036;53.224;6.554;2023-05-10T08:41:29;100919.66;;;18.30;100.00
72896;BME280;61036;53.224;6.554;2023-05-10T08:43:55;100923.03;;;18.23;100.00
72896;BME280;61036;53.224;6.554;2023-05-10T08:46:22;100925.59;;;17.73;100.00
72896;BME280;61036;53.224;6.554;2023-05-10T08:48:49;100923.03;;;18.23;100.00
72896;BME280;61036;53.224;6.554;2023-05-10T08:51:19;100930.00;;;18.18;100.00
72896;BME280;61036;53.224;6.554;2023-05-10T08:53:47;100935.94;;;18.56;100.00
72896;BME280;61036;53.224;6.554;2023-05-10T08:56:12;100945.47;;;18.09;100.00
72896;BME280;61036;53.224;6.554;2023-05-10T08:58:38;100946.06;;;18.29;100.00
72896;BME280;61036;53.224;6.554;2023-05-10T09:01:05;100953.47;;;18.11;100.00
72896;BME280;61036;53.224;6.554;2023-05-10T09:03:31;100951.44;;;18.13;100.00
72896;BME280;61036;53.224;6.554;2023-05-10T09:05:57;100953.19;;;17.96;100.00
72896;BME280;61036;53.224;6.554;2023-05-10T09:08:23;100957.47;;;18.50;100.00
72896;BME280;61036;53.224;6.554;2023-05-10T09:10:53;100953.16;;;18.14;100.00
72896;BME280;61036;53.224;6.554;2023-05-10T09:13:21;100958.25;;;18.09;100.00
72896;BME280;61036;53.224;6.554;2023-05-10T09:15:47;100947.75;;;17.34;100.00
72896;BME280;61036;53.224;6.554;2023-05-10T09:18:13;100953.28;;;17.42;100.00
72896;BME280;61036;53.224;6.554;2023-05-10T09:20:38;100963.38;;;18.12;100.00
72896;BME280;61036;53.224;6.554;2023-05-10T09:23:04;100963.38;;;18.12;100.00
72896;BME280;61036;53.224;6.554;2023-05-10T09:25:30;100970.09;;;18.17;100.00
72896;BME280;61036;53.224;6.554;2023-05-10T09:27:58;100978.97;;;18.88;100.00
72896;BME280;61036;53.224;6.554;2023-05-10T09:30:26;100969.50;;;19.16;100.00
72896;BME280;61036;53.224;6.554;2023-05-10T09:32:52;100978.19;;;19.28;100.00
72896;BME280;61036;53.224;6.554;2023-05-10T09:35:22;100976.03;;;19.73;100.00
72896;BME280;61036;53.224;6.554;2023-05-10T09:37:51;100982.06;;;18.93;100.00
72896;BME280;61036;53.224;6.554;2023-05-10T09:40:18;100978.47;;;18.92;100.00
72896;BME280;61036;53.224;6.554;2023-05-10T09:45:21;100988.19;;;19.86;100.00
72896;BME280;61036;53.224;6.554;2023-05-10T09:47:47;100986.16;;;18.97;100.00
72896;BME280;61036;53.224;6.554;2023-05-10T09:50:12;100972.72;;;19.28;100.00
72896;BME280;61036;53.224;6.554;2023-05-10T09:58:01;100995.41;;;18.96;100.00
72896;BME280;61036;53.224;6.554;2023-05-10T10:00:27;100989.00;;;19.62;100.00
72896;BME280;61036;53.224;6.554;2023-05-10T10:02:58;100991.53;;;20.29;100.00
72896;BME280;61036;53.224;6.554;2023-05-10T10:05:34;101002.06;;;19.10;100.00
72896;BME280;61036;53.224;6.554;2023-05-10T10:08:03;100995.13;;;19.24;100.00
72896;BME280;61036;53.224;6.554;2023-05-10T10:10:30;101001.47;;;19.32;100.00
72896;BME280;61036;53.224;6.554;2023-05-10T10:12:56;100993.81;;;19.93;100.00
72896;BME280;61036;53.224;6.554;2023-05-10T10:15:23;100992.47;;;20.69;100.00
72896;BME280;61036;53.224;6.554;2023-05-10T10:17:49;101000.44;;;20.31;100.00
72896;BME280;61036;53.224;6.554;2023-05-10T10:20:16;100999.94;;;20.84;100.00
72896;BME280;61036;53.224;6.554;2023-05-10T10:22:42;101012.59;;;20.37;100.00
72896;BME280;61036;53.224;6.554;2023-05-10T10:25:10;101019.25;;;20.98;100.00
72896;BME280;61036;53.224;6.554;2023-05-10T10:27:53;101017.66;;;20.48;100.00
72896;BME280;61036;53.224;6.554;2023-05-10T10:35:52;101028.19;;;19.79;100.00
72896;BME280;61036;53.224;6.554;2023-05-10T10:38:18;101028.72;;;20.16;100.00
72896;BME280;61036;53.224;6.554;2023-05-10T10:40:44;101028.56;;;19.68;100.00
72896;BME280;61036;53.224;6.554;2023-05-10T10:43:26;101025.41;;;20.53;100.00
72896;BME280;61036;53.224;6.554;2023-05-10T10:48:50;101037.59;;;20.18;100.00
72896;BME280;61036;53.224;6.554;2023-05-10T10:51:37;101040.69;;;20.31;100.00
72896;BME280;61036;53.224;6.554;2023-05-10T10:54:09;101033.09;;;20.58;100.00
72896;BME280;61036;53.224;6.554;2023-05-10T10:56:35;101029.75;;;19.98;100.00
72896;BME280;61036;53.224;6.554;2023-05-10T10:59:01;101026.50;;;19.78;100.00
72896;BME280;61036;53.224;6.554;2023-05-10T11:01:32;101032.03;;;20.67;100.00
72896;BME280;61036;53.224;6.554;2023-05-10T11:08:57;101034.66;;;21.31;100.00
72896;BME280;61036;53.224;6.554;2023-05-10T11:11:22;101040.13;;;20.99;100.00
72896;BME280;61036;53.224;6.554;2023-05-10T11:13:48;101048.06;;;19.90;100.00
72896;BME280;61036;53.224;6.554;2023-05-10T11:16:21;101050.53;;;21.52;100.00
72896;BME280;61036;53.224;6.554;2023-05-10T11:19:17;101048.63;;;21.21;100.00
72896;BME280;61036;53.224;6.554;2023-05-10T11:24:29;101051.88;;;21.16;100.00
72896;BME280;61036;53.224;6.554;2023-05-10T11:26:56;101051.78;;;21.01;100.00
72896;BME280;61036;53.224;6.554;2023-05-10T11:29:21;101056.75;;;20.59;100.00
72896;BME280;61036;53.224;6.554;2023-05-10T11:31:48;101055.66;;;18.94;100.00
72896;BME280;61036;53.224;6.554;2023-05-10T11:34:27;101061.50;;;20.65;100.00
72896;BME280;61036;53.224;6.554;2023-05-10T11:36:54;101061.91;;;19.72;100.00
72896;BME280;61036;53.224;6.554;2023-05-10T11:39:21;101061.56;;;19.83;100.00
72896;BME280;61036;53.224;6.554;2023-05-10T11:41:50;101064.91;;;20.75;100.00
72896;BME280;61036;53.224;6.554;2023-05-10T11:44:15;101068.75;;;20.25;100.00
72896;BME280;61036;53.224;6.554;2023-05-10T11:46:41;101070.75;;;20.39;100.00
72896;BME280;61036;53.224;6.554;2023-05-10T11:49:07;101079.34;;;20.52;100.00
72896;BME280;61036;53.224;6.554;2023-05-10T11:51:34;101081.19;;;20.68;100.00
72896;BME280;61036;53.224;6.554;2023-05-10T11:54:06;101081.53;;;20.65;100.00
72896;BME280;61036;53.224;6.554;2023-05-10T11:56:32;101085.81;;;20.51;100.00
72896;BME280;61036;53.224;6.554;2023-05-10T11:58:58;101083.59;;;20.71;100.00
72896;BME280;61036;53.224;6.554;2023-05-10T12:01:26;101087.22;;;20.31;100.00
72896;BME280;61036;53.224;6.554;2023-05-10T12:03:53;101084.94;;;20.75;100.00
72896;BME280;61036;53.224;6.554;2023-05-10T12:06:20;101091.69;;;20.40;100.00
72896;BME280;61036;53.224;6.554;2023-05-10T12:08:47;101096.47;;;20.38;100.00
72896;BME280;61036;53.224;6.554;2023-05-10T12:11:13;101094.94;;;20.11;100.00
72896;BME280;61036;53.224;6.554;2023-05-10T12:13:41;101100.91;;;19.90;100.00
72896;BME280;61036;53.224;6.554;2023-05-10T12:18:40;101098.34;;;20.05;100.00
72896;BME280;61036;53.224;6.554;2023-05-10T12:21:06;101106.81;;;19.53;100.00
72896;BME280;61036;53.224;6.554;2023-05-10T12:23:31;101103.31;;;19.93;100.00
72896;BME280;61036;53.224;6.554;2023-05-10T12:26:04;101106.88;;;21.23;100.00
72896;BME280;61036;53.224;6.554;2023-05-10T12:28:30;101107.31;;;21.04;100.00
72896;BME280;61036;53.224;6.554;2023-05-10T12:30:57;101114.78;;;20.46;100.00
72896;BME280;61036;53.224;6.554;2023-05-10T12:33:24;101119.56;;;20.60;100.00
72896;BME280;61036;53.224;6.554;2023-05-10T12:35:51;101115.75;;;20.86;100.00
72896;BME280;61036;53.224;6.554;2023-05-10T12:38:43;101119.94;;;21.21;100.00
72896;BME280;61036;53.224;6.554;2023-05-10T12:41:10;101122.16;;;20.53;100.00
72896;BME280;61036;53.224;6.554;2023-05-10T12:43:36;101115.53;;;21.51;100.00
72896;BME280;61036;53.224;6.554;2023-05-10T12:48:32;101124.97;;;21.49;100.00
72896;BME280;61036;53.224;6.554;2023-05-10T12:50:59;101125.00;;;21.32;100.00
72896;BME280;61036;53.224;6.554;2023-05-10T12:53:25;101131.81;;;21.44;100.00
72896;BME280;61036;53.224;6.554;2023-05-10T12:55:51;101136.81;;;21.33;100.00
72896;BME280;61036;53.224;6.554;2023-05-10T12:58:16;101130.97;;;20.96;100.00
72896;BME280;61036;53.224;6.554;2023-05-10T13:00:42;101141.78;;;19.83;100.00
72896;BME280;61036;53.224;6.554;2023-05-10T13:03:09;101138.22;;;20.48;100.00
72896;BME280;61036;53.224;6.554;2023-05-10T13:05:35;101142.19;;;20.70;100.00
72896;BME280;61036;53.224;6.554;2023-05-10T13:08:01;101138.13;;;21.06;100.00
72896;BME280;61036;53.224;6.554;2023-05-10T13:10:28;101139.50;;;21.10;100.00
72896;BME280;61036;53.224;6.554;2023-05-10T13:12:54;101136.16;;;20.67;100.00
72896;BME280;61036;53.224;6.554;2023-05-10T13:15:19;101139.03;;;20.98;100.00
72896;BME280;61036;53.224;6.554;2023-05-10T13:17:45;101142.50;;;21.39;100.00
72896;BME280;61036;53.224;6.554;2023-05-10T13:20:11;101147.06;;;19.85;100.00